Time;durP1;ratioP1;P1;durP2;ratioP2;P2;SDS_P1;SDS_P2;PMS_P1;PMS_P2;Temp;Humidity;BMP_temperature;BMP_pressure;BME280_temperature;BME280_humidity;BME280_pressure;Samples;Min_cycle;Max_cycle;Signal;HPM_P1;HPM_P2
2023/07/18 00:01:00;;;;;;;4.43;2.60;;;;;;;18.69;78.74;98697.19;4205762;28;20753;-73
2023/07/18 00:03:03;;;;;;;4.03;2.97;;;;;;;18.69;78.70;98705.94;4186843;28;20663;-74
2023/07/18 00:05:11;;;;;;;4.00;2.80;;;;;;;18.67;79.20;98702.59;4201277;28;20737;-74
2023/07/18 00:07:15;;;;;;;3.50;2.60;;;;;;;18.67;79.23;98704.41;4203819;28;20637;-73
2023/07/18 00:09:18;;;;;;;3.17;2.30;;;;;;;18.66;79.35;98710.69;4198609;28;21249;-73
2023/07/18 00:11:22;;;;;;;6.57;3.77;;;;;;;18.63;79.22;98709.13;4209695;28;21127;-74
2023/07/18 00:13:25;;;;;;;3.00;2.20;;;;;;;18.59;79.26;98704.25;4201007;28;20632;-74
2023/07/18 00:15:28;;;;;;;5.40;2.57;;;;;;;18.57;79.38;98704.41;4210188;28;20645;-73
2023/07/18 00:17:31;;;;;;;5.30;2.53;;;;;;;18.55;79.26;98716.94;4203959;28;20754;-73
2023/07/18 00:19:34;;;;;;;2.87;2.17;;;;;;;18.53;79.30;98713.56;4199593;28;20991;-73
2023/07/18 00:21:39;;;;;;;3.80;2.70;;;;;;;18.51;79.42;98710.25;4203963;28;20646;-73
2023/07/18 00:23:42;;;;;;;3.00;2.03;;;;;;;18.47;79.40;98714.13;4183559;28;20671;-73
2023/07/18 00:25:45;;;;;;;3.27;2.23;;;;;;;18.42;79.46;98716.34;4214392;28;20638;-73
2023/07/18 00:27:50;;;;;;;4.70;2.70;;;;;;;18.39;80.10;98709.66;4200366;28;20642;-73
2023/07/18 00:29:55;;;;;;;4.30;2.57;;;;;;;18.32;80.27;98711.19;4208403;28;20646;-73
2023/07/18 00:31:58;;;;;;;3.93;2.20;;;;;;;18.24;80.46;98709.25;4191853;28;20675;-73
2023/07/18 00:34:03;;;;;;;4.50;2.60;;;;;;;18.20;80.43;98712.28;4200698;28;21183;-74
2023/07/18 00:36:06;;;;;;;5.07;2.80;;;;;;;18.16;80.67;98706.47;4200300;28;21249;-73
2023/07/18 00:38:11;;;;;;;4.27;2.20;;;;;;;18.15;81.08;98712.69;4202468;28;21030;-73
2023/07/18 00:40:15;;;;;;;4.60;3.27;;;;;;;18.13;80.70;98705.88;4188841;28;21068;-73
2023/07/18 00:42:18;;;;;;;5.60;2.40;;;;;;;18.11;81.46;98711.25;4209103;28;20985;-73
2023/07/18 00:44:23;;;;;;;4.40;3.27;;;;;;;18.08;80.88;98708.06;4216406;28;21299;-73
2023/07/18 00:46:26;;;;;;;3.83;2.50;;;;;;;18.09;81.45;98713.22;4207389;28;20679;-73
2023/07/18 00:48:32;;;;;;;4.43;2.47;;;;;;;18.10;80.75;98708.75;4220131;28;20643;-73
2023/07/18 00:50:53;;;;;;;3.03;2.23;;;;;;;18.05;81.70;98710.97;4197759;28;20634;-73
2023/07/18 00:52:57;;;;;;;6.37;2.77;;;;;;;18.00;80.44;98714.03;4202791;28;20643;-73
2023/07/18 00:55:01;;;;;;;3.60;2.30;;;;;;;17.93;81.19;98710.22;4202830;28;20654;-73
2023/07/18 00:57:07;;;;;;;4.37;2.30;;;;;;;17.87;82.29;98704.66;4217398;28;20695;-73
2023/07/18 00:59:11;;;;;;;6.63;2.80;;;;;;;17.84;80.98;98707.56;4203227;28;20832;-73
2023/07/18 01:01:15;;;;;;;3.80;2.77;;;;;;;17.85;81.36;98696.06;4208461;28;20672;-73
2023/07/18 01:03:18;;;;;;;3.40;2.40;;;;;;;17.87;81.67;98704.66;4202180;28;20643;-73
2023/07/18 01:05:22;;;;;;;3.63;2.30;;;;;;;17.87;80.94;98702.03;4201313;28;20718;-73
2023/07/18 01:07:25;;;;;;;3.87;2.23;;;;;;;17.80;80.62;98700.06;4199178;28;21022;-73
2023/07/18 01:09:28;;;;;;;5.10;2.57;;;;;;;17.72;82.04;98705.19;4204261;28;21072;-73
2023/07/18 01:11:34;;;;;;;8.40;2.57;;;;;;;17.63;81.50;98698.88;4200041;28;20667;-73
2023/07/18 01:13:37;;;;;;;3.27;2.10;;;;;;;17.58;82.84;98695.81;4201165;28;20650;-73
2023/07/18 01:15:43;;;;;;;4.03;2.50;;;;;;;17.57;81.81;98706.50;4199799;28;20639;-73
2023/07/18 01:17:47;;;;;;;4.57;2.33;;;;;;;17.57;82.19;98702.06;4221349;28;20704;-73
2023/07/18 01:19:50;;;;;;;6.30;3.00;;;;;;;17.56;82.65;98703.03;4189222;28;20650;-73
2023/07/18 01:21:55;;;;;;;4.27;2.67;;;;;;;17.58;82.68;98700.28;4201373;28;20662;-73
2023/07/18 01:23:57;;;;;;;3.27;2.30;;;;;;;17.59;82.42;98700.13;4185691;28;20712;-73
2023/07/18 01:26:00;;;;;;;5.83;2.70;;;;;;;17.56;81.27;98702.19;4197128;28;20647;-73
2023/07/18 01:28:06;;;;;;;4.07;3.10;;;;;;;17.48;81.19;98696.75;4207933;28;20644;-73
2023/07/18 01:30:10;;;;;;;2.73;2.17;;;;;;;17.43;83.12;98695.50;4205927;28;20699;-73
2023/07/18 01:32:13;;;;;;;3.70;2.33;;;;;;;17.40;83.57;98691.31;4197154;28;20674;-73
2023/07/18 01:34:16;;;;;;;3.13;2.30;;;;;;;17.41;81.60;98686.84;4204190;28;20640;-73
2023/07/18 01:36:19;;;;;;;3.00;2.30;;;;;;;17.37;83.08;98681.03;4199334;28;20748;-73
2023/07/18 01:38:29;;;;;;;3.60;2.27;;;;;;;17.32;82.32;98688.50;4187156;28;20701;-73
2023/07/18 01:40:32;;;;;;;6.90;4.13;;;;;;;17.27;81.62;98682.75;4202369;28;20667;-73
2023/07/18 01:42:35;;;;;;;4.77;2.97;;;;;;;17.21;81.57;98679.81;4183712;28;20686;-73
2023/07/18 01:44:38;;;;;;;6.43;2.87;;;;;;;17.14;82.37;98678.66;4203144;28;21213;-73
2023/07/18 01:46:42;;;;;;;3.50;2.37;;;;;;;17.11;82.34;98679.75;4208729;28;21007;-73
2023/07/18 01:48:46;;;;;;;4.40;2.50;;;;;;;17.10;84.33;98679.88;4222345;28;21264;-73
2023/07/18 01:50:49;;;;;;;4.53;2.83;;;;;;;17.09;82.68;98673.78;4212694;28;21237;-73
2023/07/18 01:52:52;;;;;;;3.93;2.17;;;;;;;17.10;83.21;98672.78;4187240;28;21085;-72
2023/07/18 01:54:59;;;;;;;6.23;2.10;;;;;;;17.09;83.16;98675.56;4210638;28;20660;-73
2023/07/18 01:57:02;;;;;;;7.23;2.57;;;;;;;17.10;83.61;98682.50;4212623;28;20641;-73
2023/07/18 01:59:06;;;;;;;3.80;2.33;;;;;;;17.09;83.03;98686.09;4208204;28;20755;-73
2023/07/18 02:01:09;;;;;;;4.33;2.20;;;;;;;17.09;83.03;98680.84;4203213;28;20700;-73
2023/07/18 02:03:12;;;;;;;4.00;2.50;;;;;;;17.07;83.65;98677.50;4221383;28;21059;-73
2023/07/18 02:05:18;;;;;;;3.50;2.20;;;;;;;17.00;83.14;98677.19;4213010;28;20754;-73
2023/07/18 02:07:21;;;;;;;3.23;2.27;;;;;;;16.97;83.87;98671.31;4187378;28;20659;-73
2023/07/18 02:09:23;;;;;;;3.63;2.43;;;;;;;16.92;85.11;98677.97;4208966;28;21259;-73
2023/07/18 02:11:27;;;;;;;3.77;2.40;;;;;;;16.88;83.55;98680.00;4211378;28;20660;-73
2023/07/18 02:13:30;;;;;;;4.53;3.03;;;;;;;16.93;82.91;98685.75;4206229;28;20642;-73
2023/07/18 02:15:33;;;;;;;3.33;2.33;;;;;;;16.94;84.04;98686.56;4206491;28;20654;-73
2023/07/18 02:17:40;;;;;;;4.90;3.07;;;;;;;16.92;84.56;98688.50;4203970;28;20679;-73
2023/07/18 02:19:43;;;;;;;5.50;2.90;;;;;;;16.91;84.81;98684.19;4187233;28;20637;-73
2023/07/18 02:21:46;;;;;;;4.80;2.97;;;;;;;16.91;84.84;98697.38;4208488;28;20639;-73
2023/07/18 02:23:49;;;;;;;4.07;2.53;;;;;;;16.90;84.74;98696.53;4204861;28;20648;-73
2023/07/18 02:25:53;;;;;;;4.73;2.37;;;;;;;16.89;83.13;98692.22;4193837;28;20770;-73
2023/07/18 02:27:57;;;;;;;4.13;2.63;;;;;;;16.88;84.48;98697.63;4208408;28;20644;-73
2023/07/18 02:30:08;;;;;;;3.60;2.40;;;;;;;16.84;84.84;98694.41;4201948;28;20752;-73
2023/07/18 02:32:10;;;;;;;5.10;2.80;;;;;;;16.79;85.59;98695.75;4202254;28;20660;-73
2023/07/18 02:34:14;;;;;;;3.10;2.23;;;;;;;16.78;83.24;98691.44;4198369;28;20695;-73
2023/07/18 02:36:18;;;;;;;3.47;2.50;;;;;;;16.76;83.60;98688.09;4205159;28;20669;-73
2023/07/18 02:38:21;;;;;;;4.50;3.10;;;;;;;16.70;83.93;98683.34;4191766;28;21794;-73
2023/07/18 02:40:26;;;;;;;4.30;3.07;;;;;;;16.65;85.38;98677.63;4192367;28;20755;-73
2023/07/18 02:42:31;;;;;;;4.90;3.30;;;;;;;16.62;82.70;98678.72;4207872;28;20643;-73
2023/07/18 02:44:36;;;;;;;3.40;2.47;;;;;;;16.56;84.74;98675.75;4201912;28;20657;-73
2023/07/18 02:46:39;;;;;;;3.37;2.40;;;;;;;16.51;85.63;98684.03;4201854;28;20700;-73
2023/07/18 02:48:43;;;;;;;12.23;2.80;;;;;;;16.50;85.24;98683.34;4201759;28;20647;-73
2023/07/18 02:50:46;;;;;;;3.43;2.53;;;;;;;16.44;83.99;98675.94;4209197;28;21226;-73
2023/07/18 02:52:48;;;;;;;3.57;2.50;;;;;;;16.39;85.34;98683.38;4207204;28;20740;-73
2023/07/18 02:54:51;;;;;;;3.73;2.27;;;;;;;16.37;85.95;98687.94;4220848;28;20635;-73
2023/07/18 02:56:56;;;;;;;4.57;2.60;;;;;;;16.33;85.13;98697.88;4219334;28;20728;-73
2023/07/18 02:58:59;;;;;;;3.40;2.40;;;;;;;16.35;84.54;98698.59;4211574;28;21017;-73
2023/07/18 03:01:04;;;;;;;4.10;2.50;;;;;;;16.34;84.40;98691.69;4187964;28;20663;-73
2023/07/18 03:03:07;;;;;;;5.03;3.00;;;;;;;16.31;85.86;98688.44;4198119;28;20660;-74
2023/07/18 03:05:10;;;;;;;3.50;2.40;;;;;;;16.27;86.47;98694.94;4185647;28;20709;-76
2023/07/18 03:07:17;;;;;;;3.73;2.30;;;;;;;16.22;85.23;98697.06;4198830;28;20644;-73
2023/07/18 03:09:22;;;;;;;3.97;2.40;;;;;;;16.18;85.67;98696.47;4202858;28;20636;-73
2023/07/18 03:11:25;;;;;;;3.50;2.90;;;;;;;16.19;86.43;98699.94;4206002;28;21013;-74
2023/07/18 03:13:29;;;;;;;4.30;2.47;;;;;;;16.21;86.46;98705.94;4209240;28;20631;-73
2023/07/18 03:15:32;;;;;;;7.80;2.40;;;;;;;16.24;84.83;98697.81;4201592;28;21024;-73
2023/07/18 03:17:36;;;;;;;4.03;2.50;;;;;;;16.21;85.62;98695.41;4203934;28;21353;-73
2023/07/18 03:19:39;;;;;;;3.43;2.17;;;;;;;16.12;84.97;98693.50;4201506;28;20639;-73
2023/07/18 03:21:43;;;;;;;3.43;2.37;;;;;;;16.08;84.83;98684.19;4199184;28;20682;-73
2023/07/18 03:23:46;;;;;;;6.57;3.90;;;;;;;16.08;84.73;98694.69;4207750;28;20707;-73
2023/07/18 03:25:49;;;;;;;4.77;2.67;;;;;;;16.11;85.04;98689.19;4210450;28;20695;-73
2023/07/18 03:27:53;;;;;;;5.73;2.70;;;;;;;16.10;84.99;98693.63;4211168;28;20636;-73
2023/07/18 03:29:56;;;;;;;3.87;2.30;;;;;;;16.07;86.15;98690.38;4200114;28;20693;-73
2023/07/18 03:32:00;;;;;;;4.20;2.47;;;;;;;16.04;85.45;98698.53;4198660;28;20681;-73
2023/07/18 03:34:05;;;;;;;4.37;2.53;;;;;;;16.01;85.73;98696.13;4203481;28;21270;-73
2023/07/18 03:36:08;;;;;;;5.37;1.97;;;;;;;16.00;85.41;98701.53;4203455;28;20735;-73
2023/07/18 03:38:11;;;;;;;2.87;2.27;;;;;;;16.02;85.67;98695.19;4205392;28;20642;-73
2023/07/18 03:40:16;;;;;;;3.70;2.30;;;;;;;16.00;86.51;98694.50;4184109;28;20713;-75
2023/07/18 03:42:18;;;;;;;4.30;2.63;;;;;;;15.95;86.37;98693.19;4201064;28;20730;-75
2023/07/18 03:44:22;;;;;;;3.20;2.60;;;;;;;15.94;86.86;98692.34;4205046;28;20668;-75
2023/07/18 03:46:25;;;;;;;4.40;2.37;;;;;;;15.99;86.75;98686.72;4203195;28;20663;-75
2023/07/18 03:48:28;;;;;;;3.77;2.47;;;;;;;15.99;84.75;98691.97;4202820;28;20649;-75
2023/07/18 03:50:33;;;;;;;3.67;2.50;;;;;;;15.98;87.21;98685.03;4204053;28;20649;-75
2023/07/18 03:52:35;;;;;;;4.37;2.90;;;;;;;15.91;86.30;98671.53;4206884;28;20662;-75
2023/07/18 03:54:38;;;;;;;5.37;2.80;;;;;;;15.86;85.08;98678.97;4206154;28;20655;-73
2023/07/18 03:56:42;;;;;;;5.20;2.83;;;;;;;15.80;84.98;98676.84;4201658;28;20750;-73
2023/07/18 03:58:45;;;;;;;5.07;3.37;;;;;;;15.76;87.26;98678.03;4200443;28;20648;-73
2023/07/18 04:00:48;;;;;;;3.87;2.50;;;;;;;15.78;87.17;98670.84;4201980;28;20644;-75
2023/07/18 04:02:51;;;;;;;3.77;2.67;;;;;;;15.84;86.19;98672.16;4202742;28;21034;-73
2023/07/18 04:04:55;;;;;;;3.50;2.50;;;;;;;15.89;86.37;98662.09;4203849;28;20733;-74
2023/07/18 04:06:59;;;;;;;3.20;2.40;;;;;;;15.92;86.98;98670.59;4207077;28;20660;-75
2023/07/18 04:09:03;;;;;;;3.40;2.60;;;;;;;15.94;87.06;98670.47;4204994;28;20649;-75
2023/07/18 04:11:06;;;;;;;5.03;3.27;;;;;;;15.94;88.10;98671.31;4201916;28;21043;-75
2023/07/18 04:13:09;;;;;;;4.77;2.47;;;;;;;15.97;85.83;98675.50;4202198;28;21242;-75
2023/07/18 04:15:13;;;;;;;4.90;3.00;;;;;;;15.95;86.78;98677.38;4199445;28;20658;-75
2023/07/18 04:17:17;;;;;;;3.50;2.17;;;;;;;15.94;85.58;98676.56;4205354;28;20642;-75
2023/07/18 04:19:20;;;;;;;3.83;2.60;;;;;;;15.95;85.44;98680.88;4206591;28;21270;-75
2023/07/18 04:21:23;;;;;;;3.50;2.27;;;;;;;15.98;87.72;98691.13;4205928;28;20725;-73
2023/07/18 04:23:28;;;;;;;5.63;2.50;;;;;;;16.03;85.72;98681.09;4182479;28;20645;-73
2023/07/18 04:25:34;;;;;;;3.93;2.60;;;;;;;16.08;85.61;98684.19;4217536;28;20680;-73
2023/07/18 04:27:38;;;;;;;5.00;2.80;;;;;;;16.11;87.24;98684.75;4203435;28;20655;-72
2023/07/18 04:29:41;;;;;;;3.50;2.30;;;;;;;16.13;86.77;98692.53;4202409;28;20749;-73
2023/07/18 04:31:44;;;;;;;5.00;2.37;;;;;;;16.15;85.12;98680.94;4202574;28;20684;-73
2023/07/18 04:33:48;;;;;;;3.80;2.40;;;;;;;16.18;87.15;98691.22;4199243;28;20709;-73
2023/07/18 04:35:51;;;;;;;4.07;2.50;;;;;;;16.23;86.08;98686.44;4203610;28;20685;-73
2023/07/18 04:37:55;;;;;;;7.20;3.03;;;;;;;16.28;85.91;98678.16;4198863;28;20647;-78
2023/07/18 04:39:59;;;;;;;3.97;2.53;;;;;;;16.33;84.52;98686.53;4183680;28;20700;-78
2023/07/18 04:42:01;;;;;;;6.23;2.90;;;;;;;16.39;86.30;98684.22;4197584;28;20655;-77
2023/07/18 04:44:05;;;;;;;3.13;2.23;;;;;;;16.43;85.47;98683.00;4193083;28;21243;-77
2023/07/18 04:46:08;;;;;;;6.43;2.77;;;;;;;16.50;85.18;98687.63;4216670;28;21117;-77
2023/07/18 04:48:13;;;;;;;4.43;2.67;;;;;;;16.55;85.88;98682.84;4192301;28;20739;-80
2023/07/18 04:50:15;;;;;;;4.00;2.90;;;;;;;16.59;85.94;98688.69;4203417;28;20701;-80
2023/07/18 04:52:19;;;;;;;5.27;2.40;;;;;;;16.62;84.81;98686.63;4198618;28;20662;-80
2023/07/18 04:54:22;;;;;;;3.80;2.43;;;;;;;16.66;86.76;98677.50;4203919;28;20653;-77
2023/07/18 04:56:26;;;;;;;3.40;2.57;;;;;;;16.71;86.80;98685.03;4201070;28;20655;-77
2023/07/18 04:58:30;;;;;;;4.10;2.60;;;;;;;16.75;85.38;98689.91;4199564;28;20640;-77
2023/07/18 05:00:32;;;;;;;3.67;2.33;;;;;;;16.81;85.15;98689.41;4203631;28;20727;-77
2023/07/18 05:02:35;;;;;;;3.60;2.70;;;;;;;16.85;85.11;98688.16;4200542;28;20657;-77
2023/07/18 05:04:39;;;;;;;5.57;2.93;;;;;;;16.86;83.36;98675.84;4198575;28;21073;-79
2023/07/18 05:06:42;;;;;;;4.00;2.90;;;;;;;16.84;82.91;98683.88;4200531;28;20775;-77
2023/07/18 05:08:45;;;;;;;4.57;2.67;;;;;;;16.87;83.50;98678.34;4201073;28;20713;-77
2023/07/18 05:10:48;;;;;;;4.03;2.57;;;;;;;16.96;84.82;98682.84;4186491;28;20637;-77
2023/07/18 05:12:54;;;;;;;4.07;2.30;;;;;;;17.05;84.11;98680.28;4195920;28;21210;-77
2023/07/18 05:14:56;;;;;;;3.97;2.20;;;;;;;17.12;83.76;98681.44;4173888;28;20640;-77
2023/07/18 05:16:59;;;;;;;4.57;2.53;;;;;;;17.18;83.91;98691.41;4189127;28;20655;-77
2023/07/18 05:19:02;;;;;;;3.80;2.43;;;;;;;17.28;84.21;98680.97;4194482;28;20652;-77
2023/07/18 05:21:06;;;;;;;2.87;2.30;;;;;;;17.34;83.68;98680.47;4193589;28;20660;-77
2023/07/18 05:23:09;;;;;;;4.10;2.87;;;;;;;17.39;83.06;98684.34;4193999;28;20663;-77
2023/07/18 05:25:14;;;;;;;4.10;2.80;;;;;;;17.45;82.65;98677.72;4182530;28;20650;-77
2023/07/18 05:27:17;;;;;;;3.90;2.47;;;;;;;17.52;82.51;98677.88;4202449;28;20656;-78
2023/07/18 05:29:22;;;;;;;3.13;2.33;;;;;;;17.56;82.33;98671.38;4200894;28;20659;-78
2023/07/18 05:31:25;;;;;;;3.87;2.40;;;;;;;17.62;83.54;98681.41;4200948;28;20741;-78
2023/07/18 05:33:28;;;;;;;4.10;2.70;;;;;;;17.71;83.41;98672.69;4183051;28;20705;-78
2023/07/18 05:35:31;;;;;;;4.40;2.60;;;;;;;17.81;83.32;98676.16;4204159;28;21292;-77
2023/07/18 05:37:35;;;;;;;4.87;2.97;;;;;;;17.91;81.95;98677.03;4203246;28;20678;-77
2023/07/18 05:39:38;;;;;;;4.60;2.43;;;;;;;17.96;82.02;98674.81;4201715;28;21196;-77
2023/07/18 05:41:41;;;;;;;4.43;2.70;;;;;;;18.06;82.16;98679.16;4203703;28;20644;-77
2023/07/18 05:43:44;;;;;;;3.97;2.93;;;;;;;18.17;81.51;98681.69;4207805;28;21051;-78
2023/07/18 05:45:49;;;;;;;5.10;2.73;;;;;;;18.34;80.81;98674.91;4208485;28;20754;-77
2023/07/18 05:47:53;;;;;;;4.23;2.70;;;;;;;18.52;80.68;98674.94;4195757;28;20657;-77
2023/07/18 05:49:56;;;;;;;3.90;2.50;;;;;;;18.79;80.09;98677.66;4204337;28;20750;-77
2023/07/18 05:51:59;;;;;;;4.10;2.80;;;;;;;19.05;78.97;98669.03;4200975;28;20644;-77
2023/07/18 05:54:04;;;;;;;4.50;2.43;;;;;;;19.24;79.15;98678.72;4200885;28;20731;-77
2023/07/18 05:56:07;;;;;;;4.50;2.87;;;;;;;19.63;77.50;98681.09;4205960;28;20646;-77
2023/07/18 05:58:10;;;;;;;5.20;2.90;;;;;;;20.03;76.20;98685.94;4206466;28;21069;-77
2023/07/18 06:00:15;;;;;;;3.53;2.70;;;;;;;20.41;76.75;98685.69;4206958;28;20639;-77
2023/07/18 06:02:21;;;;;;;5.13;2.97;;;;;;;20.76;75.06;98678.56;4201531;28;21027;-77
2023/07/18 06:04:24;;;;;;;7.63;2.70;;;;;;;21.07;72.88;98675.34;4207331;28;20678;-77
2023/07/18 06:06:27;;;;;;;4.67;2.33;;;;;;;21.29;72.06;98669.53;4201863;28;21223;-77
2023/07/18 06:08:31;;;;;;;5.17;2.80;;;;;;;21.33;70.90;98670.84;4199983;28;20700;-77
2023/07/18 06:10:34;;;;;;;3.63;2.53;;;;;;;21.65;70.83;98666.59;4205615;28;21104;-78
2023/07/18 06:12:37;;;;;;;6.90;2.90;;;;;;;22.03;70.59;98668.75;4212412;28;20636;-77
2023/07/18 06:14:39;;;;;;;4.93;2.80;;;;;;;22.39;69.64;98671.03;4201798;28;20630;-77
2023/07/18 06:16:42;;;;;;;3.30;2.00;;;;;;;22.72;69.63;98674.38;4204465;28;20743;-77
2023/07/18 06:18:47;;;;;;;4.00;2.50;;;;;;;23.03;67.98;98661.25;4207441;28;20682;-77
2023/07/18 06:20:51;;;;;;;3.93;2.80;;;;;;;23.29;66.91;98665.41;4205003;28;20660;-77
2023/07/18 06:22:53;;;;;;;5.20;2.53;;;;;;;23.54;66.60;98659.00;4201907;28;20744;-77
2023/07/18 06:24:56;;;;;;;3.43;2.43;;;;;;;23.75;65.77;98668.09;4205716;28;20714;-77
2023/07/18 06:27:00;;;;;;;4.43;2.40;;;;;;;23.97;66.16;98662.03;4208114;28;21119;-77
2023/07/18 06:29:03;;;;;;;4.67;2.30;;;;;;;24.15;65.99;98672.25;4201800;28;20653;-77
2023/07/18 06:31:06;;;;;;;3.53;2.27;;;;;;;24.25;64.13;98656.88;4203318;28;20639;-77
2023/07/18 06:33:09;;;;;;;4.93;3.07;;;;;;;24.34;63.76;98660.34;4204500;28;20646;-78
2023/07/18 06:35:14;;;;;;;4.80;2.60;;;;;;;24.43;62.42;98649.47;4205312;28;20687;-77
2023/07/18 06:37:26;;;;;;;3.73;2.53;;;;;;;24.49;62.44;98638.09;4208294;28;20728;-78
2023/07/18 06:39:30;;;;;;;3.20;2.33;;;;;;;24.57;61.42;98646.03;4206163;28;20650;-77
2023/07/18 06:41:33;;;;;;;4.13;2.50;;;;;;;24.75;64.02;98635.88;4207438;28;20683;-78
2023/07/18 06:43:37;;;;;;;5.30;2.50;;;;;;;24.98;62.01;98642.00;4204351;28;20731;-77
2023/07/18 06:45:43;;;;;;;4.80;2.57;;;;;;;25.16;61.77;98635.34;4203007;28;20800;-77
2023/07/18 06:47:46;;;;;;;3.30;2.10;;;;;;;25.30;61.85;98629.19;4200285;28;20756;-77
2023/07/18 06:49:49;;;;;;;3.90;2.50;;;;;;;25.51;61.92;98631.97;4198203;28;20651;-74
2023/07/18 06:51:53;;;;;;;4.00;3.13;;;;;;;25.72;61.43;98635.59;4201478;28;20661;-74
2023/07/18 06:53:57;;;;;;;3.97;2.47;;;;;;;25.93;59.99;98632.97;4203648;28;20660;-74
2023/07/18 06:56:00;;;;;;;3.33;2.30;;;;;;;25.98;59.58;98627.88;4201257;28;20688;-74
2023/07/18 06:58:03;;;;;;;5.37;4.30;;;;;;;26.19;61.14;98626.06;4202305;28;20784;-74
2023/07/18 07:00:11;;;;;;;4.00;2.40;;;;;;;26.43;61.71;98631.97;4208510;28;21241;-74
2023/07/18 07:02:14;;;;;;;3.37;2.00;;;;;;;26.60;58.43;98618.13;4196355;28;21306;-74
2023/07/18 07:04:18;;;;;;;4.20;2.80;;;;;;;26.83;59.85;98621.41;4199985;28;21322;-74
2023/07/18 07:06:23;;;;;;;3.17;2.30;;;;;;;26.97;58.65;98620.53;4202170;28;20749;-74
2023/07/18 07:08:29;;;;;;;3.23;2.17;;;;;;;27.06;57.11;98619.38;4199806;28;20667;-74
2023/07/18 07:10:33;;;;;;;2.30;1.60;;;;;;;27.09;57.04;98614.47;4194456;28;20659;-74
2023/07/18 07:12:36;;;;;;;4.47;2.40;;;;;;;27.19;56.75;98614.94;4198905;28;20734;-74
2023/07/18 07:14:39;;;;;;;3.80;2.13;;;;;;;27.32;55.87;98616.88;4192590;28;20689;-74
2023/07/18 07:16:43;;;;;;;3.30;2.30;;;;;;;27.54;56.06;98612.13;4201193;28;21220;-74
2023/07/18 07:18:49;;;;;;;3.03;2.47;;;;;;;27.77;56.08;98609.97;4182945;28;20686;-74
2023/07/18 07:20:53;;;;;;;3.33;1.63;;;;;;;27.91;55.49;98614.38;4199646;28;20655;-74
2023/07/18 07:22:57;;;;;;;2.50;1.80;;;;;;;28.06;55.10;98594.41;4187960;28;20641;-74
2023/07/18 07:25:03;;;;;;;3.60;2.10;;;;;;;28.20;56.11;98595.28;4200432;28;20642;-74
2023/07/18 07:27:07;;;;;;;3.03;1.70;;;;;;;28.38;54.83;98593.69;4196901;28;22896;-74
2023/07/18 07:29:10;;;;;;;3.30;1.90;;;;;;;28.56;54.37;98577.81;4204256;28;20913;-74
2023/07/18 07:31:14;;;;;;;3.90;2.70;;;;;;;28.62;55.23;98574.31;4203942;28;20691;-74
2023/07/18 07:33:18;;;;;;;35.47;8.27;;;;;;;28.57;54.17;98568.72;4201985;28;20654;-74
2023/07/18 07:35:22;;;;;;;9.23;4.87;;;;;;;28.58;53.94;98567.69;4201873;28;20650;-74
2023/07/18 07:37:24;;;;;;;13.17;4.33;;;;;;;28.63;54.49;98563.34;4203275;28;21091;-74
2023/07/18 07:39:27;;;;;;;232.67;33.50;;;;;;;28.74;53.64;98560.06;4202572;28;20678;-74
2023/07/18 07:41:32;;;;;;;5.30;3.00;;;;;;;28.79;54.43;98556.78;4201776;28;20658;-74
2023/07/18 07:43:35;;;;;;;4.10;2.30;;;;;;;28.90;53.80;98564.19;4200025;28;21469;-74
2023/07/18 07:45:38;;;;;;;3.20;2.20;;;;;;;28.96;54.10;98560.69;4201684;28;20657;-74
2023/07/18 07:47:42;;;;;;;4.43;2.10;;;;;;;29.06;53.98;98561.91;4200839;28;20679;-74
2023/07/18 07:49:44;;;;;;;4.77;2.20;;;;;;;29.10;52.48;98558.59;4201774;28;20647;-74
2023/07/18 07:51:48;;;;;;;4.50;2.13;;;;;;;29.23;54.19;98558.63;4202943;28;21058;-74
2023/07/18 07:53:51;;;;;;;3.67;2.20;;;;;;;29.23;52.83;98555.09;4202294;28;20642;-74
2023/07/18 07:55:54;;;;;;;3.33;2.23;;;;;;;29.15;52.09;98553.44;4202407;28;20670;-74
2023/07/18 07:57:58;;;;;;;3.07;1.80;;;;;;;29.17;53.78;98554.06;4202952;28;21282;-74
2023/07/18 08:00:01;;;;;;;3.30;1.87;;;;;;;29.26;52.66;98547.44;4201225;28;20642;-74
2023/07/18 08:02:08;;;;;;;3.00;2.03;;;;;;;29.43;53.03;98537.88;4203465;28;21050;-74
2023/07/18 08:04:12;;;;;;;3.17;1.67;;;;;;;29.57;52.47;98537.63;4203605;28;20674;-74
2023/07/18 08:06:15;;;;;;;2.93;1.90;;;;;;;29.67;53.36;98537.19;4206728;28;20666;-74
2023/07/18 08:08:18;;;;;;;3.63;1.80;;;;;;;29.65;52.56;98529.31;4200296;28;21280;-74
2023/07/18 08:10:22;;;;;;;4.00;2.27;;;;;;;29.79;52.58;98522.03;4205633;28;20677;-74
2023/07/18 08:12:25;;;;;;;2.63;1.90;;;;;;;29.99;52.80;98524.44;4188054;28;20645;-74
2023/07/18 08:14:28;;;;;;;4.60;2.53;;;;;;;30.16;53.54;98522.88;4198910;28;21385;-75
2023/07/18 08:16:32;;;;;;;2.77;1.60;;;;;;;30.15;51.69;98523.91;4202405;28;20678;-74
2023/07/18 08:18:36;;;;;;;6.00;2.00;;;;;;;30.21;51.72;98512.25;4206943;28;20643;-74
2023/07/18 08:20:39;;;;;;;7.83;2.07;;;;;;;30.32;52.80;98514.25;4206290;28;20637;-74
2023/07/18 08:22:42;;;;;;;2.50;1.93;;;;;;;30.40;51.13;98513.19;4200099;28;20653;-74
2023/07/18 08:24:45;;;;;;;2.80;1.80;;;;;;;30.33;49.93;98501.63;4203848;28;20658;-74
2023/07/18 08:26:48;;;;;;;3.10;1.73;;;;;;;30.37;50.21;98497.47;4202915;28;20654;-75
2023/07/18 08:28:52;;;;;;;4.03;1.80;;;;;;;30.23;49.61;98496.72;4199246;28;20759;-74
2023/07/18 08:30:57;;;;;;;2.73;1.73;;;;;;;30.25;49.44;98502.72;4209444;28;20702;-75
2023/07/18 08:33:00;;;;;;;2.73;1.70;;;;;;;30.31;50.41;98506.41;4204739;28;20639;-75
2023/07/18 08:35:03;;;;;;;2.40;1.90;;;;;;;30.43;48.84;98494.72;4202394;28;20657;-74
2023/07/18 08:37:09;;;;;;;2.50;1.70;;;;;;;30.48;49.49;98495.72;4199396;28;20651;-75
2023/07/18 08:39:12;;;;;;;2.90;1.83;;;;;;;30.66;49.11;98494.97;4201036;28;20658;-75
2023/07/18 08:41:16;;;;;;;3.33;1.90;;;;;;;30.69;50.01;98495.34;4202144;28;20646;-74
2023/07/18 08:43:20;;;;;;;3.53;2.00;;;;;;;30.87;50.37;98489.16;4201832;28;20776;-75
2023/07/18 08:45:24;;;;;;;2.80;1.80;;;;;;;30.89;48.88;98485.22;4204186;28;20653;-75
2023/07/18 08:47:28;;;;;;;2.67;1.43;;;;;;;30.80;48.06;98491.91;4203715;28;20648;-74
2023/07/18 08:49:32;;;;;;;2.77;1.77;;;;;;;30.69;49.88;98478.34;4202517;28;21030;-74
2023/07/18 08:51:38;;;;;;;4.23;2.27;;;;;;;30.74;49.42;98470.41;4198344;28;20654;-74
2023/07/18 08:53:40;;;;;;;9.40;3.60;;;;;;;30.81;49.86;98466.63;4201892;28;21011;-74
2023/07/18 08:55:44;;;;;;;2.23;1.40;;;;;;;30.97;51.04;98466.91;4196361;28;20655;-74
2023/07/18 08:57:47;;;;;;;3.97;2.10;;;;;;;31.05;49.24;98463.09;4202865;28;20767;-74
2023/07/18 08:59:51;;;;;;;2.37;1.50;;;;;;;31.05;48.41;98469.28;4202599;28;20649;-78
2023/07/18 09:01:55;;;;;;;3.00;1.70;;;;;;;31.04;50.07;98464.94;4204113;28;20734;-78
2023/07/18 09:04:00;;;;;;;2.80;1.50;;;;;;;31.12;48.91;98464.66;4202059;28;20758;-78
2023/07/18 09:06:04;;;;;;;2.13;1.43;;;;;;;31.18;48.95;98452.94;4198025;28;20667;-78
2023/07/18 09:08:07;;;;;;;2.50;1.60;;;;;;;31.29;48.75;98460.31;4206939;28;20750;-78
2023/07/18 09:10:10;;;;;;;2.70;1.90;;;;;;;31.24;47.65;98457.44;4202639;28;20695;-78
2023/07/18 09:12:14;;;;;;;3.20;1.80;;;;;;;31.27;49.54;98457.00;4201170;28;21245;-78
2023/07/18 09:14:23;;;;;;;2.50;1.70;;;;;;;31.33;48.62;98457.97;4218779;28;20993;-78
2023/07/18 09:16:26;;;;;;;4.77;1.73;;;;;;;31.35;48.69;98445.94;4203953;28;20737;-78
2023/07/18 09:18:29;;;;;;;2.27;1.67;;;;;;;31.33;48.31;98434.50;4197029;28;20644;-78
2023/07/18 09:20:34;;;;;;;3.27;2.07;;;;;;;31.37;48.29;98446.50;4215012;28;21072;-78
2023/07/18 09:22:39;;;;;;;4.13;1.63;;;;;;;31.42;47.27;98438.59;4201305;28;20643;-78
2023/07/18 09:24:43;;;;;;;2.30;1.60;;;;;;;31.38;48.07;98443.59;4201577;28;20651;-78
2023/07/18 09:26:49;;;;;;;3.00;1.80;;;;;;;31.25;48.99;98442.91;4197962;28;20642;-78
2023/07/18 09:28:52;;;;;;;5.93;2.70;;;;;;;31.14;47.96;98432.09;4199649;28;20743;-77
2023/07/18 09:30:55;;;;;;;3.40;2.03;;;;;;;31.01;47.84;98435.72;4198671;28;20647;-77
2023/07/18 09:32:59;;;;;;;2.70;2.20;;;;;;;30.88;46.87;98431.53;4203764;28;20646;-78
2023/07/18 09:35:04;;;;;;;3.27;1.80;;;;;;;30.76;47.27;98425.19;4202497;28;20658;-78
2023/07/18 09:37:08;;;;;;;2.27;1.77;;;;;;;30.79;48.60;98422.88;4183843;28;20644;-78
2023/07/18 09:39:12;;;;;;;2.67;1.97;;;;;;;30.81;48.13;98423.50;4201857;28;20651;-78
2023/07/18 09:41:16;;;;;;;3.70;2.20;;;;;;;31.00;48.93;98434.09;4201577;28;20700;-78
2023/07/18 09:43:21;;;;;;;3.20;2.03;;;;;;;31.10;47.64;98428.19;4205745;28;20684;-78